createdAt,value
2019-05-20T06:33:13.548Z,84
2019-05-20T06:36:26.073Z,83
2019-05-20T06:39:13.843Z,84
2019-05-20T06:42:13.736Z,83
2019-05-20T06:45:14.235Z,83
2019-05-20T06:48:13.879Z,84
2019-05-20T06:51:13.938Z,83
2019-05-20T06:54:13.997Z,83
2019-05-20T06:57:14.082Z,84
2019-05-20T07:00:14.206Z,83
2019-05-20T07:03:14.391Z,83
2019-05-20T07:06:14.369Z,83
2019-05-20T07:09:14.304Z,83
2019-05-20T07:12:14.477Z,83
2019-05-20T07:15:14.439Z,83
2019-05-20T07:18:14.611Z,83
2019-05-20T07:21:14.546Z,83
2019-05-20T07:24:14.635Z,84
2019-05-20T07:27:14.776Z,84
2019-05-20T07:42:14.996Z,86
2019-05-20T07:45:15.039Z,87
2019-05-20T07:48:15.116Z,86
2019-05-20T07:51:15.168Z,87
2019-05-20T07:54:15.234Z,87
2019-05-20T07:57:15.295Z,87
2019-05-20T08:00:15.460Z,87
2019-05-20T09:02:18.809Z,83
2019-05-20T09:05:18.750Z,81
2019-05-20T09:08:18.856Z,83
2019-05-20T09:11:19.244Z,82
2019-05-20T09:14:18.914Z,81
2019-05-20T09:17:18.980Z,80
2019-05-20T09:20:19.179Z,82
2019-05-20T09:23:19.068Z,80
2019-05-20T09:26:19.149Z,79
2019-05-20T09:29:19.222Z,76
2019-05-20T09:32:19.453Z,77
2019-05-20T09:35:19.372Z,78
2019-05-20T09:38:21.285Z,79
2019-05-20T09:41:19.533Z,82
2019-05-20T09:44:19.562Z,83
2019-05-20T09:47:19.637Z,82
2019-05-20T09:50:19.670Z,82
2019-05-20T09:53:19.740Z,81
2019-05-20T09:56:19.809Z,81
2019-05-20T09:59:19.883Z,81
2019-05-20T10:02:19.956Z,81
2019-05-20T10:05:19.997Z,82
2019-05-20T10:08:36.335Z,81
2019-05-20T10:11:20.142Z,81
2019-05-20T10:14:20.207Z,81
2019-05-20T10:17:20.441Z,82
2019-05-20T10:20:20.346Z,83
2019-05-20T10:23:20.409Z,83
2019-05-20T10:26:20.502Z,84
2019-05-20T10:29:20.518Z,84
2019-05-20T10:35:20.787Z,85
2019-05-20T10:38:20.744Z,85
2019-05-20T10:44:20.974Z,85
2019-05-20T10:50:21.002Z,85
2019-05-20T10:53:21.047Z,85
2019-05-20T10:56:21.130Z,84
2019-05-20T10:59:21.165Z,85
2019-05-20T12:13:33.746Z,85
2019-05-20T12:16:33.812Z,85
2019-05-20T12:19:33.908Z,84
2019-05-20T12:22:33.955Z,84
2019-05-20T12:25:34.007Z,83
2019-05-20T12:28:34.262Z,84
2019-05-20T12:31:34.138Z,84
2019-05-20T12:34:34.270Z,84
2019-05-20T12:37:34.268Z,84
2019-05-20T12:40:34.357Z,83
2019-05-20T12:43:34.597Z,81
2019-05-20T12:46:34.472Z,81
2019-05-20T12:49:34.734Z,80
2019-05-20T12:52:35.039Z,80
2019-05-20T12:55:35.042Z,80
2019-05-20T12:58:34.758Z,81
2019-05-20T13:01:34.806Z,81
2019-05-20T13:04:34.887Z,80
2019-05-20T13:07:34.962Z,80
2019-05-20T13:10:35.008Z,81
2019-05-20T13:13:35.194Z,80
2019-05-20T13:16:35.156Z,80
2019-05-20T13:19:35.202Z,79
2019-05-20T13:22:35.286Z,79
2019-05-20T13:25:35.442Z,79
2019-05-20T13:28:35.432Z,79
2019-05-20T13:31:35.491Z,80
2019-05-20T13:34:35.663Z,79
2019-05-20T13:37:35.888Z,79
2019-05-20T13:40:45.883Z,79
2019-05-20T13:43:35.934Z,79
2019-05-20T13:46:35.806Z,79
2019-05-20T13:49:35.875Z,80
2019-05-20T13:52:35.948Z,79
2019-05-20T13:55:36.049Z,79
2019-05-20T13:58:36.127Z,79
2019-05-20T14:01:36.165Z,80
2019-05-20T14:04:36.230Z,80
2019-05-20T14:07:36.276Z,81
2019-05-20T14:10:36.340Z,80
2019-05-20T14:13:36.471Z,80
2019-05-20T14:16:36.506Z,80
2019-05-20T14:19:36.576Z,79
2019-05-20T14:22:36.745Z,78
2019-05-20T14:25:36.691Z,78
2019-05-20T14:28:37.208Z,78
2019-05-20T14:31:36.848Z,80
2019-05-20T14:34:36.967Z,80
2019-05-20T14:37:36.956Z,78
2019-05-20T14:40:37.026Z,78
2019-05-20T14:43:37.139Z,78
2019-05-20T14:46:37.292Z,78
2019-05-20T14:49:37.244Z,78
2019-05-20T14:52:37.330Z,80
2019-05-20T14:55:42.285Z,80
2019-05-20T14:58:37.444Z,81
2019-05-20T15:01:37.494Z,82
2019-05-20T15:04:37.672Z,82
2019-05-20T15:07:37.762Z,82
2019-05-20T15:10:37.711Z,83
2019-05-20T15:13:37.910Z,82
2019-05-20T15:16:38.253Z,83
2019-05-20T15:19:37.903Z,82
2019-05-20T15:22:38.398Z,82
2019-05-20T15:25:38.035Z,81
2019-05-20T15:28:38.543Z,82
2019-05-20T15:31:38.162Z,82
2019-05-20T15:34:38.224Z,82
2019-05-20T15:37:38.307Z,84
2019-05-20T15:40:38.377Z,84
2019-05-20T15:43:38.428Z,85
2019-05-20T15:46:38.485Z,84
2019-05-20T15:49:38.813Z,85
2019-05-20T15:52:38.726Z,85
2019-05-20T15:55:38.688Z,85
2019-05-20T15:58:38.770Z,85
2019-05-20T16:01:38.913Z,85
2019-05-20T16:04:38.864Z,85
2019-05-20T16:10:39.193Z,83
2019-05-20T16:13:39.496Z,84
2019-05-20T16:16:39.614Z,83
2019-05-20T16:19:39.189Z,83
2019-05-20T16:22:39.256Z,83
